Time;durP1;ratioP1;P1;durP2;ratioP2;P2;SDS_P1;SDS_P2;PMS_P1;PMS_P2;Temp;Humidity;BMP_temperature;BMP_pressure;BME280_temperature;BME280_humidity;BME280_pressure;Samples;Min_cycle;Max_cycle;Signal;HPM_P1;HPM_P2
2023/01/11 00:00:45;;;;;;;4.65;4.35;;;8.60;99.90;;;;;;4857382;29;20061;-82
2023/01/11 00:03:11;;;;;;;4.15;3.85;;;10.20;99.90;;;;;;4875527;29;20049;-83
2023/01/11 00:05:42;;;;;;;4.22;3.92;;;9.10;99.90;;;;;;4862681;29;20404;-82
2023/01/11 00:08:08;;;;;;;6.35;4.35;;;8.60;99.90;;;;;;4854607;29;20495;-81
2023/01/11 00:10:35;;;;;;;9.55;5.25;;;8.60;99.90;;;;;;4875735;29;20515;-82
2023/01/11 00:13:01;;;;;;;4.55;4.15;;;7.30;99.90;;;;;;4846050;29;20131;-82
2023/01/11 00:15:27;;;;;;;5.00;4.50;;;8.70;99.90;;;;;;4853339;29;20044;-82
2023/01/11 00:17:52;;;;;;;4.53;4.13;;;8.70;99.90;;;;;;4882747;29;20041;-82
2023/01/11 00:20:18;;;;;;;5.28;4.88;;;8.70;99.90;;;;;;4881146;29;20504;-83
2023/01/11 00:22:44;;;;;;;6.05;5.20;;;8.80;99.90;;;;;;4864175;29;20052;-82
2023/01/11 00:25:09;;;;;;;5.03;4.63;;;8.80;99.90;;;;;;4866715;29;20044;-82
2023/01/11 00:27:35;;;;;;;5.40;4.60;;;10.20;99.90;;;;;;4863429;29;20147;-81
2023/01/11 00:30:01;;;;;;;5.07;4.65;;;10.30;99.90;;;;;;4851904;29;20052;-81
2023/01/11 00:32:27;;;;;;;4.68;4.28;;;10.40;99.90;;;;;;4870509;29;20059;-82
2023/01/11 00:34:53;;;;;;;3.97;3.67;;;10.30;99.90;;;;;;4859396;29;20052;-82
2023/01/11 00:37:19;;;;;;;4.50;4.10;;;8.90;99.90;;;;;;4876109;29;20160;-82
2023/01/11 00:39:44;;;;;;;5.00;4.53;;;10.30;99.90;;;;;;4869833;29;20142;-82
2023/01/11 00:47:59;;;;;;;4.75;4.13;;;9.00;99.90;;;;;;4889306;29;20044;-82
2023/01/11 00:50:27;;;;;;;3.83;3.53;;;9.00;99.90;;;;;;4848667;29;20045;-81
2023/01/11 00:52:53;;;;;;;5.00;3.63;;;10.10;99.90;;;;;;4886354;29;20056;-80
2023/01/11 00:55:18;;;;;;;6.50;4.38;;;9.10;99.90;;;;;;4856082;29;20060;-81
2023/01/11 00:57:47;;;;;;;4.82;4.43;;;10.10;99.90;;;;;;4889682;29;20040;-83
2023/01/11 01:00:13;;;;;;;4.97;4.45;;;9.10;99.90;;;;;;4874349;29;20706;-84
2023/01/11 01:02:39;;;;;;;4.65;4.25;;;9.10;99.90;;;;;;4887386;29;20045;-82
2023/01/11 01:05:06;;;;;;;5.35;4.57;;;9.70;99.90;;;;;;4857420;29;20041;-81
2023/01/11 01:07:31;;;;;;;3.90;3.60;;;9.10;99.90;;;;;;4872312;29;20071;-81
2023/01/11 01:09:57;;;;;;;3.83;3.53;;;10.50;99.90;;;;;;4855739;29;20091;-82
2023/01/11 01:15:07;;;;;;;3.65;3.45;;;9.10;99.90;;;;;;4888582;29;20224;-83
2023/01/11 01:17:33;;;;;;;3.55;3.35;;;9.10;99.90;;;;;;4868096;29;20063;-82
2023/01/11 01:19:59;;;;;;;2.90;2.70;;;9.20;99.90;;;;;;4869550;29;20037;-81
2023/01/11 01:22:24;;;;;;;2.92;2.72;;;9.30;99.90;;;;;;4865976;29;20078;-81
2023/01/11 01:24:50;;;;;;;2.67;2.47;;;9.20;99.90;;;;;;4862103;29;21095;-80
2023/01/11 01:27:16;;;;;;;3.50;3.20;;;10.40;99.90;;;;;;4848074;29;20456;-82
2023/01/11 01:29:43;;;;;;;3.45;3.15;;;9.30;99.90;;;;;;4863240;29;20116;-82
2023/01/11 01:32:08;;;;;;;3.00;2.42;;;9.30;99.90;;;;;;4873211;29;20127;-82
2023/01/11 01:34:36;;;;;;;2.95;2.75;;;10.70;99.90;;;;;;4869136;29;20139;-81
2023/01/11 01:37:06;;;;;;;2.58;2.47;;;8.50;99.90;;;;;;4869882;29;20037;-85
2023/01/11 01:39:31;;;;;;;3.03;2.40;;;9.40;99.90;;;;;;4871262;29;20059;-83
2023/01/11 01:41:57;;;;;;;2.97;2.78;;;9.40;99.90;;;;;;4867844;29;20056;-82
2023/01/11 01:44:53;;;;;;;3.80;2.85;;;9.40;99.90;;;;;;4867766;29;20099;-82
2023/01/11 01:47:52;;;;;;;3.38;3.08;;;9.50;99.90;;;;;;4869916;29;20045;-83
2023/01/11 01:50:31;;;;;;;2.72;2.53;;;9.50;99.90;;;;;;4864943;29;20159;-82
2023/01/11 01:53:11;;;;;;;2.58;2.38;;;9.50;99.90;;;;;;4879396;29;20100;-83
2023/01/11 01:55:41;;;;;;;3.58;2.20;;;9.40;99.90;;;;;;4880513;29;20056;-83
2023/01/11 01:58:14;;;;;;;2.28;2.08;;;9.50;99.90;;;;;;4878565;29;20111;-81
2023/01/11 02:00:42;;;;;;;2.88;2.67;;;10.00;99.90;;;;;;4872713;29;20059;-83
2023/01/11 02:03:12;;;;;;;2.45;2.28;;;9.60;99.90;;;;;;4866430;29;20059;-83
2023/01/11 02:05:41;;;;;;;3.90;2.92;;;10.90;99.90;;;;;;4867970;29;20067;-83
2023/01/11 02:08:16;;;;;;;2.78;2.45;;;9.50;99.90;;;;;;4870220;29;20040;-82
2023/01/11 02:10:41;;;;;;;2.67;2.47;;;9.60;99.90;;;;;;4871572;29;20044;-79
2023/01/11 02:13:11;;;;;;;3.53;2.58;;;9.60;99.90;;;;;;4903622;29;20058;-81
2023/01/11 02:15:38;;;;;;;2.38;2.00;;;9.60;99.90;;;;;;4880904;29;20287;-81
2023/01/11 02:18:09;;;;;;;2.33;2.13;;;9.60;99.90;;;;;;4877239;29;20079;-81
2023/01/11 02:20:57;;;;;;;2.47;2.28;;;9.60;99.90;;;;;;4878918;29;20085;-80
2023/01/11 02:23:49;;;;;;;2.45;2.28;;;9.60;99.90;;;;;;4865919;29;20100;-82
2023/01/11 02:26:33;;;;;;;2.25;2.05;;;9.70;99.90;;;;;;4853449;29;20049;-81
2023/01/11 02:29:04;;;;;;;1.98;1.88;;;9.70;99.90;;;;;;4864035;29;20048;-81
2023/01/11 02:31:46;;;;;;;2.33;2.13;;;10.40;99.90;;;;;;4881374;29;20052;-81
2023/01/11 02:34:36;;;;;;;2.75;2.40;;;9.70;99.90;;;;;;4872183;29;20163;-80
2023/01/11 02:37:31;;;;;;;1.15;1.05;;;9.70;99.90;;;;;;4871692;29;20056;-82
2023/01/11 02:40:16;;;;;;;3.35;2.05;;;9.80;99.90;;;;;;4884070;29;20096;-81
2023/01/11 02:45:51;;;;;;;1.70;1.60;;;9.80;99.90;;;;;;4863854;29;20048;-83
2023/01/11 02:48:33;;;;;;;1.50;1.50;;;9.80;99.90;;;;;;4867853;29;20059;-81
2023/01/11 02:51:14;;;;;;;1.13;1.02;;;9.80;99.90;;;;;;4887086;29;20044;-83
2023/01/11 02:54:06;;;;;;;1.13;1.13;;;9.80;99.90;;;;;;4875985;29;20099;-81
2023/01/11 02:56:38;;;;;;;1.33;1.10;;;9.80;99.90;;;;;;4871832;29;20091;-81
2023/01/11 02:59:06;;;;;;;1.35;1.00;;;9.90;99.90;;;;;;4901161;29;20044;-82
2023/01/11 03:01:41;;;;;;;1.90;1.23;;;9.90;99.90;;;;;;4893923;29;20092;-81
2023/01/11 03:04:24;;;;;;;1.73;1.30;;;9.90;99.90;;;;;;4901300;29;20523;-80
2023/01/11 03:07:18;;;;;;;1.38;1.20;;;9.80;99.90;;;;;;4893521;29;20049;-82
2023/01/11 03:10:10;;;;;;;1.25;0.75;;;9.90;99.90;;;;;;4837182;29;20083;-80
2023/01/11 03:12:59;;;;;;;1.00;0.88;;;9.90;99.90;;;;;;4885005;29;20512;-82
2023/01/11 03:15:27;;;;;;;1.75;1.00;;;10.00;99.90;;;;;;4892847;29;20048;-81
2023/01/11 03:17:56;;;;;;;1.13;0.80;;;10.00;99.90;;;;;;4892221;29;20084;-81
2023/01/11 03:20:30;;;;;;;0.82;0.80;;;10.00;99.90;;;;;;4892811;29;20064;-81
2023/01/11 03:23:03;;;;;;;1.27;1.15;;;10.00;99.90;;;;;;4900966;29;20044;-81
2023/01/11 03:25:37;;;;;;;1.52;0.88;;;10.00;99.90;;;;;;4872253;29;20182;-81
2023/01/11 03:28:32;;;;;;;1.30;1.20;;;10.00;99.90;;;;;;4888657;29;20144;-81
2023/01/11 03:31:06;;;;;;;0.85;0.85;;;10.10;99.90;;;;;;4884793;29;20043;-81
2023/01/11 03:33:51;;;;;;;1.45;0.63;;;11.00;99.90;;;;;;4893706;29;20037;-81
2023/01/11 03:36:30;;;;;;;2.10;1.50;;;10.20;99.90;;;;;;4884290;29;20499;-80
2023/01/11 03:39:04;;;;;;;3.88;1.98;;;10.00;99.90;;;;;;4878008;29;20047;-80
2023/01/11 03:41:34;;;;;;;3.30;2.03;;;11.90;99.90;;;;;;4898369;29;20139;-82
2023/01/11 03:44:04;;;;;;;5.97;1.75;;;10.30;99.90;;;;;;4882809;29;20036;-81
2023/01/11 03:46:37;;;;;;;2.95;1.20;;;10.30;99.90;;;;;;4879615;29;20045;-81
2023/01/11 03:49:32;;;;;;;4.57;1.80;;;10.30;99.90;;;;;;4890547;29;20111;-81
2023/01/11 03:52:01;;;;;;;6.40;1.63;;;10.30;99.90;;;;;;4878953;29;20071;-81
2023/01/11 03:54:28;;;;;;;6.53;2.13;;;10.40;99.90;;;;;;4869715;29;20048;-80
2023/01/11 03:57:03;;;;;;;6.05;1.65;;;10.40;99.90;;;;;;4891141;29;20370;-80
2023/01/11 03:59:29;;;;;;;5.38;2.58;;;10.90;99.90;;;;;;4891390;29;20514;-80
2023/01/11 04:01:57;;;;;;;12.55;2.88;;;11.90;99.90;;;;;;4890272;29;20044;-81
2023/01/11 04:04:23;;;;;;;6.43;2.33;;;10.50;99.90;;;;;;4900270;29;20103;-80
2023/01/11 04:06:48;;;;;;;13.90;2.33;;;10.50;99.90;;;;;;4876157;29;20152;-81
2023/01/11 04:09:14;;;;;;;11.38;2.08;;;10.50;99.90;;;;;;4879500;29;20544;-81
2023/01/11 04:11:40;;;;;;;16.42;3.28;;;10.50;99.90;;;;;;4889836;29;20059;-80
2023/01/11 04:14:05;;;;;;;12.45;3.10;;;10.50;99.90;;;;;;4871100;29;20075;-80
2023/01/11 04:16:34;;;;;;;10.75;3.15;;;10.50;99.90;;;;;;4889623;29;20493;-81
2023/01/11 04:19:02;;;;;;;17.13;3.72;;;10.50;99.90;;;;;;4880073;29;20040;-80
2023/01/11 04:21:28;;;;;;;15.00;4.28;;;11.90;99.90;;;;;;4857984;29;20166;-80
2023/01/11 04:23:54;;;;;;;9.95;2.63;;;11.00;99.90;;;;;;4873949;29;20044;-80
2023/01/11 04:26:20;;;;;;;13.18;2.88;;;10.50;99.90;;;;;;4895479;29;20075;-81
2023/01/11 04:28:46;;;;;;;11.73;2.72;;;11.80;99.90;;;;;;4881383;29;20049;-81
2023/01/11 04:31:12;;;;;;;13.48;3.58;;;10.50;99.90;;;;;;4898093;29;20142;-80
2023/01/11 04:33:38;;;;;;;18.23;3.25;;;10.50;99.90;;;;;;4869668;29;20091;-80
2023/01/11 04:36:09;;;;;;;12.38;2.63;;;10.50;99.90;;;;;;4895426;29;20080;-80
2023/01/11 04:38:35;;;;;;;20.90;3.90;;;10.50;99.90;;;;;;4875377;29;20061;-80
2023/01/11 04:43:46;;;;;;;;;;;10.40;99.90;;;;;;4888272;29;20051;-82
2023/01/11 04:46:12;;;;;;;16.65;3.03;;;11.60;99.90;;;;;;4868266;29;19927;-81
2023/01/11 04:48:39;;;;;;;22.33;3.97;;;10.40;99.90;;;;;;4882587;29;20410;-81
2023/01/11 04:51:06;;;;;;;18.27;4.13;;;10.40;99.90;;;;;;4883929;29;20107;-81
2023/01/11 04:53:32;;;;;;;20.25;3.72;;;10.40;99.90;;;;;;4883582;29;20142;-81
2023/01/11 04:56:04;;;;;;;22.17;3.53;;;10.30;99.90;;;;;;4873596;29;20147;-81
2023/01/11 04:58:38;;;;;;;9.07;1.40;;;10.30;99.90;;;;;;4900580;29;20115;-81
2023/01/11 05:01:09;;;;;;;17.77;2.47;;;10.30;99.90;;;;;;4868360;29;20062;-81
2023/01/11 05:03:35;;;;;;;10.25;2.05;;;10.30;99.90;;;;;;4877600;29;20040;-80
2023/01/11 05:06:01;;;;;;;10.38;1.50;;;11.00;99.90;;;;;;4877182;29;20384;-81
2023/01/11 05:08:29;;;;;;;9.18;1.45;;;11.20;99.90;;;;;;4878054;29;20053;-81
2023/01/11 05:10:58;;;;;;;12.15;2.58;;;10.10;99.90;;;;;;4873664;29;20411;-80
2023/01/11 05:13:41;;;;;;;11.15;1.67;;;10.10;99.90;;;;;;4877690;29;20525;-81
2023/01/11 05:16:19;;;;;;;11.60;2.40;;;10.00;99.90;;;;;;4863698;29;20061;-80
2023/01/11 05:18:47;;;;;;;10.75;1.45;;;10.00;99.90;;;;;;4875644;29;20060;-80
2023/01/11 05:21:15;;;;;;;13.52;2.40;;;11.00;99.90;;;;;;4878450;29;20080;-80
2023/01/11 05:23:41;;;;;;;14.73;2.47;;;10.00;99.90;;;;;;4857591;29;20048;-80
2023/01/11 05:26:10;;;;;;;18.88;2.83;;;9.90;99.90;;;;;;4865477;29;20713;-80
2023/01/11 05:28:35;;;;;;;22.63;5.50;;;11.40;99.90;;;;;;4887401;29;20060;-81
2023/01/11 05:31:03;;;;;;;23.95;4.75;;;9.90;99.90;;;;;;4876180;29;20048;-80
2023/01/11 05:33:29;;;;;;;24.63;4.63;;;10.00;99.90;;;;;;4864448;29;20169;-81
2023/01/11 05:36:07;;;;;;;25.77;4.32;;;9.90;99.90;;;;;;4874478;29;20576;-81
2023/01/11 05:38:33;;;;;;;30.42;4.45;;;9.90;99.90;;;;;;4898110;29;20044;-80
2023/01/11 05:41:03;;;;;;;36.28;5.03;;;11.40;99.90;;;;;;4891192;29;20067;-80
2023/01/11 05:43:30;;;;;;;21.58;3.83;;;9.90;99.90;;;;;;4879767;29;20072;-80
2023/01/11 05:45:56;;;;;;;22.90;3.92;;;9.90;99.90;;;;;;4867859;29;20438;-80
2023/01/11 05:48:23;;;;;;;23.45;4.50;;;11.20;99.90;;;;;;4885671;29;20112;-80
2023/01/11 05:50:50;;;;;;;23.15;3.97;;;9.90;99.90;;;;;;4877407;29;20055;-80
2023/01/11 05:53:16;;;;;;;23.92;4.10;;;10.20;99.90;;;;;;4878514;29;20071;-80
2023/01/11 05:55:52;;;;;;;24.17;3.30;;;11.00;99.90;;;;;;4901152;29;20044;-80
2023/01/11 05:58:17;;;;;;;19.92;2.78;;;11.30;99.90;;;;;;4863429;29;20087;-80
2023/01/11 06:00:46;;;;;;;22.23;3.67;;;9.90;99.90;;;;;;4883391;29;20076;-80
2023/01/11 06:03:11;;;;;;;22.90;3.60;;;10.90;99.90;;;;;;4893956;29;20126;-80
2023/01/11 06:05:37;;;;;;;24.35;4.03;;;10.00;99.90;;;;;;4864007;29;20095;-80
2023/01/11 06:08:03;;;;;;;21.65;4.32;;;10.00;99.90;;;;;;4892812;29;20044;-80
2023/01/11 06:10:28;;;;;;;20.35;4.18;;;9.70;99.90;;;;;;4893286;29;20049;-80
2023/01/11 06:13:25;;;;;;;18.92;3.20;;;9.80;99.90;;;;;;4880937;29;20041;-80
2023/01/11 06:15:40;;;;;;;25.02;3.88;;;10.70;99.90;;;;;;4879944;29;20060;-79
2023/01/11 06:18:05;;;;;;;29.75;6.68;;;9.60;99.90;;;;;;4865089;29;20043;-80
2023/01/11 06:20:31;;;;;;;28.48;4.55;;;10.60;99.90;;;;;;4874334;29;20133;-80
2023/01/11 06:22:56;;;;;;;32.33;3.72;;;11.10;99.90;;;;;;4875065;29;20183;-80
2023/01/11 06:25:22;;;;;;;31.15;3.22;;;10.10;99.90;;;;;;4881525;29;20060;-80
2023/01/11 06:27:48;;;;;;;27.35;4.55;;;9.70;99.90;;;;;;4894020;29;20056;-80
2023/01/11 06:30:13;;;;;;;21.60;4.10;;;9.60;99.90;;;;;;4867470;29;20068;-80
2023/01/11 06:32:39;;;;;;;23.92;3.30;;;9.50;99.90;;;;;;4888999;29;20041;-80
2023/01/11 06:35:05;;;;;;;26.48;4.35;;;9.60;99.90;;;;;;4880516;29;20123;-80
2023/01/11 06:37:31;;;;;;;31.73;5.18;;;9.50;99.90;;;;;;4883404;29;20032;-80
2023/01/11 06:39:56;;;;;;;30.75;3.72;;;9.50;99.90;;;;;;4867788;29;20135;-80
2023/01/11 06:42:22;;;;;;;20.02;3.40;;;9.50;99.90;;;;;;4891523;29;20041;-80
2023/01/11 06:44:47;;;;;;;20.73;3.63;;;9.40;99.90;;;;;;4884219;29;20720;-80
2023/01/11 06:47:13;;;;;;;26.42;4.32;;;10.80;99.90;;;;;;4880794;29;20095;-80
2023/01/11 06:49:39;;;;;;;15.43;2.65;;;9.50;99.90;;;;;;4892518;29;20526;-80
2023/01/11 06:52:12;;;;;;;21.20;2.92;;;9.50;99.90;;;;;;4893288;29;20043;-80
2023/01/11 06:55:12;;;;;;;17.40;2.72;;;9.40;99.90;;;;;;4868965;29;20115;-80
2023/01/11 06:57:41;;;;;;;17.10;2.70;;;8.20;99.90;;;;;;4879829;29;20053;-80
2023/01/11 07:00:11;;;;;;;22.23;3.63;;;10.40;99.90;;;;;;4867846;29;20477;-80
2023/01/11 07:02:36;;;;;;;23.70;3.72;;;9.40;99.90;;;;;;4877858;29;20171;-80
2023/01/11 07:05:02;;;;;;;12.82;2.60;;;10.50;99.90;;;;;;4882389;29;20115;-81
2023/01/11 07:07:27;;;;;;;17.45;3.20;;;9.40;99.90;;;;;;4866596;29;20060;-80
2023/01/11 07:09:53;;;;;;;16.58;2.72;;;9.50;99.90;;;;;;4862669;29;20751;-80
2023/01/11 07:12:19;;;;;;;17.85;3.53;;;9.40;99.90;;;;;;4880553;29;20048;-80
2023/01/11 07:14:45;;;;;;;15.10;2.60;;;9.40;99.90;;;;;;4878408;29;20041;-80
2023/01/11 07:17:11;;;;;;;18.83;2.83;;;9.30;99.90;;;;;;4879679;29;20075;-80
2023/01/11 07:19:36;;;;;;;16.08;2.88;;;10.80;99.90;;;;;;4877027;29;20647;-80
2023/01/11 07:22:02;;;;;;;22.70;3.13;;;9.20;99.90;;;;;;4877207;29;20462;-83
2023/01/11 07:24:28;;;;;;;23.67;3.13;;;10.20;99.90;;;;;;4892316;29;20429;-80
2023/01/11 07:26:55;;;;;;;20.92;3.05;;;10.50;99.90;;;;;;4877039;29;20049;-81
2023/01/11 07:29:21;;;;;;;19.52;3.38;;;9.00;99.90;;;;;;4868175;29;20067;-80
2023/01/11 07:31:46;;;;;;;17.73;2.90;;;10.40;99.90;;;;;;4866537;29;20064;-81
2023/01/11 07:34:12;;;;;;;13.45;2.70;;;10.30;99.90;;;;;;4860602;29;20148;-81
2023/01/11 07:36:38;;;;;;;19.83;3.15;;;9.10;99.90;;;;;;4882254;29;20837;-81
2023/01/11 07:39:05;;;;;;;18.00;3.33;;;10.50;99.90;;;;;;4864828;29;20064;-81
2023/01/11 07:44:18;;;;;;;16.52;2.55;;;9.10;99.90;;;;;;4882146;29;20080;-81
2023/01/11 07:46:44;;;;;;;16.95;4.05;;;8.80;99.90;;;;;;4876954;29;20077;-81
2023/01/11 07:49:10;;;;;;;19.33;3.40;;;9.20;99.90;;;;;;4884625;29;20049;-80
2023/01/11 07:51:36;;;;;;;14.02;2.95;;;10.80;99.90;;;;;;4891891;29;20541;-81
2023/01/11 07:54:02;;;;;;;25.77;3.75;;;9.00;99.90;;;;;;4882714;29;20290;-80
2023/01/11 07:56:29;;;;;;;19.13;2.95;;;9.10;99.90;;;;;;4879936;29;20136;-80
2023/01/11 07:58:54;;;;;;;18.08;3.20;;;9.10;99.90;;;;;;4890056;29;20084;-80
2023/01/11 08:01:20;;;;;;;17.08;2.25;;;9.10;99.90;;;;;;4893435;29;20124;-80
2023/01/11 08:03:46;;;;;;;23.13;2.83;;;9.10;99.90;;;;;;4886697;29;20063;-81
2023/01/11 08:06:13;;;;;;;10.70;1.75;;;9.10;99.90;;;;;;4881673;29;20115;-81
2023/01/11 08:08:39;;;;;;;14.18;2.22;;;9.40;99.90;;;;;;4862516;29;20286;-80
2023/01/11 08:16:33;;;;;;;12.10;2.60;;;9.20;99.90;;;;;;4871510;29;20048;-81
2023/01/11 08:19:00;;;;;;;11.48;1.70;;;9.10;99.90;;;;;;4201501;29;10000688;-80
2023/01/11 08:21:26;;;;;;;14.10;2.00;;;9.10;99.90;;;;;;4858043;29;20056;-80
2023/01/11 08:23:56;;;;;;;13.07;2.45;;;10.70;99.90;;;;;;4875256;29;20527;-80
2023/01/11 08:26:23;;;;;;;18.60;2.35;;;9.00;99.90;;;;;;4857301;29;20044;-80
2023/01/11 08:28:49;;;;;;;13.35;2.35;;;9.00;99.90;;;;;;4874161;29;20056;-81
2023/01/11 08:31:14;;;;;;;23.80;2.65;;;9.00;99.90;;;;;;4867447;29;20052;-80
2023/01/11 08:33:41;;;;;;;14.07;2.88;;;9.00;99.90;;;;;;4869826;29;20049;-81
2023/01/11 08:36:09;;;;;;;16.10;3.00;;;8.90;99.90;;;;;;4884574;29;20067;-80
2023/01/11 08:38:35;;;;;;;10.65;1.77;;;9.00;99.90;;;;;;4899280;29;20099;-80
2023/01/11 08:41:09;;;;;;;15.02;3.90;;;9.00;99.90;;;;;;4890053;29;20120;-80
2023/01/11 08:43:36;;;;;;;29.73;10.45;;;9.90;99.90;;;;;;4870595;29;20048;-80
2023/01/11 08:46:01;;;;;;;26.95;9.23;;;8.90;99.90;;;;;;4886805;29;20052;-81
2023/01/11 08:48:27;;;;;;;23.42;7.55;;;10.00;99.90;;;;;;4876700;29;20044;-81
2023/01/11 08:50:53;;;;;;;13.65;3.83;;;8.80;99.90;;;;;;4889868;29;20044;-81
2023/01/11 08:53:19;;;;;;;17.15;4.22;;;9.40;99.90;;;;;;4868733;29;20481;-82
2023/01/11 08:55:47;;;;;;;30.00;8.20;;;8.80;99.90;;;;;;4888123;29;20424;-81
2023/01/11 08:58:13;;;;;;;33.58;14.15;;;9.60;99.90;;;;;;4859785;29;20362;-81
2023/01/11 09:00:38;;;;;;;34.85;14.20;;;8.70;99.90;;;;;;4876195;29;20128;-82
2023/01/11 09:03:04;;;;;;;22.40;7.70;;;9.20;99.90;;;;;;4875717;29;20581;-81
2023/01/11 09:05:30;;;;;;;13.63;4.43;;;9.90;99.90;;;;;;4881808;29;20040;-82
2023/01/11 09:07:56;;;;;;;16.70;3.30;;;8.90;99.90;;;;;;4860100;29;20079;-81
2023/01/11 09:10:26;;;;;;;13.63;3.40;;;10.10;99.90;;;;;;4893445;29;20044;-81
2023/01/11 09:12:52;;;;;;;12.63;3.08;;;8.60;99.90;;;;;;4894783;29;20112;-82
2023/01/11 09:15:18;;;;;;;18.50;2.50;;;8.50;99.90;;;;;;4877241;29;20045;-81
2023/01/11 09:17:46;;;;;;;13.90;1.77;;;8.50;99.90;;;;;;4877317;29;20032;-82
2023/01/11 09:20:11;;;;;;;13.95;2.70;;;8.50;99.90;;;;;;4881363;29;20520;-83
2023/01/11 09:22:37;;;;;;;14.80;2.50;;;9.50;99.90;;;;;;4898713;29;20797;-82
2023/01/11 09:25:03;;;;;;;13.02;1.55;;;9.10;99.90;;;;;;4899982;29;20512;-81
2023/01/11 09:27:29;;;;;;;14.77;1.73;;;8.40;99.90;;;;;;4868365;29;20092;-81
2023/01/11 09:29:55;;;;;;;13.38;1.90;;;8.40;99.90;;;;;;4886543;29;20457;-82
2023/01/11 09:32:20;;;;;;;27.70;2.70;;;9.80;99.90;;;;;;4905266;29;20059;-85
2023/01/11 09:34:48;;;;;;;12.23;2.65;;;10.00;99.90;;;;;;4902381;29;20043;-85
2023/01/11 09:37:14;;;;;;;10.18;1.70;;;8.40;99.90;;;;;;4891149;29;20048;-86
2023/01/11 09:39:40;;;;;;;7.78;1.75;;;9.30;99.90;;;;;;4892799;29;20123;-79
2023/01/11 09:42:21;;;;;;;14.07;1.83;;;8.40;99.90;;;;;;4881572;29;20544;-79
2023/01/11 09:45:04;;;;;;;14.27;2.92;;;8.50;99.90;;;;;;4897097;29;20397;-78
2023/01/11 09:47:39;;;;;;;14.02;2.13;;;8.60;99.90;;;;;;4881234;29;20043;-79
2023/01/11 09:50:27;;;;;;;11.00;2.13;;;9.20;99.90;;;;;;4868798;29;20338;-86
2023/01/11 09:53:07;;;;;;;48.70;37.95;;;9.60;99.90;;;;;;4881410;29;20077;-83
2023/01/11 09:55:41;;;;;;;14.10;2.22;;;8.60;99.90;;;;;;4881903;29;20571;-85
2023/01/11 09:58:32;;;;;;;13.50;1.98;;;10.20;99.90;;;;;;4884238;29;20126;-83
2023/01/11 10:01:13;;;;;;;10.63;1.33;;;8.60;99.90;;;;;;4886441;29;20053;-86
2023/01/11 10:04:02;;;;;;;14.45;1.92;;;10.00;99.90;;;;;;4880573;29;20535;-89
2023/01/11 10:07:07;;;;;;;7.85;2.10;;;8.90;99.90;;;;;;4862831;29;20561;-83
2023/01/11 10:09:44;;;;;;;17.92;1.67;;;8.70;99.90;;;;;;4890863;29;20560;-81
2023/01/11 10:12:10;;;;;;;8.82;1.58;;;8.70;99.90;;;;;;4887386;29;20079;-87
2023/01/11 10:14:53;;;;;;;9.38;1.73;;;9.40;99.90;;;;;;4904290;29;20091;-87
2023/01/11 10:17:57;;;;;;;9.13;1.50;;;8.80;99.90;;;;;;4890281;29;20044;-85
2023/01/11 10:20:29;;;;;;;12.45;1.95;;;8.80;99.90;;;;;;4864881;29;20055;-85
2023/01/11 10:23:05;;;;;;;10.20;2.10;;;10.20;99.90;;;;;;4903390;29;20044;-86
2023/01/11 10:25:43;;;;;;;8.40;1.73;;;8.90;99.90;;;;;;4894070;29;20123;-81
2023/01/11 10:28:34;;;;;;;10.90;1.92;;;8.90;99.90;;;;;;4903466;29;20512;-82
2023/01/11 10:31:21;;;;;;;10.68;1.85;;;8.90;99.90;;;;;;4888779;29;20468;-82
2023/01/11 10:43:15;;;;;;;18.40;2.65;;;8.90;99.90;;;;;;4885502;29;20052;-87
2023/01/11 10:45:49;;;;;;;16.17;2.17;;;9.00;99.90;;;;;;4894500;29;20105;-86
2023/01/11 10:48:28;;;;;;;18.20;2.53;;;10.30;99.90;;;;;;4869660;29;20052;-85
2023/01/11 10:51:00;;;;;;;13.60;2.42;;;9.00;99.90;;;;;;4874039;29;20718;-87
2023/01/11 10:54:22;;;;;;;14.20;1.90;;;9.00;99.90;;;;;;4888703;29;20052;-90
2023/01/11 10:57:14;;;;;;;20.30;2.95;;;8.20;99.90;;;;;;4858969;29;20052;-86
2023/01/11 10:59:55;;;;;;;13.05;2.05;;;9.10;99.90;;;;;;4894232;29;20044;-88
2023/01/11 11:02:39;;;;;;;18.90;2.13;;;8.40;99.90;;;;;;4880573;29;20515;-84
2023/01/11 11:05:30;;;;;;;15.80;3.58;;;10.90;99.90;;;;;;4900146;29;20104;-87
2023/01/11 11:08:06;;;;;;;22.60;2.75;;;9.10;99.90;;;;;;4871420;29;20123;-83
2023/01/11 11:10:41;;;;;;;29.33;3.90;;;9.10;99.90;;;;;;4893133;29;20076;-84
2023/01/11 11:13:22;;;;;;;17.23;2.60;;;9.10;99.90;;;;;;4881792;29;20051;-77
2023/01/11 11:16:13;;;;;;;27.50;3.70;;;9.10;99.90;;;;;;4902900;29;20084;-77
2023/01/11 11:18:40;;;;;;;20.00;2.90;;;9.20;99.90;;;;;;4895325;29;20048;-85
2023/01/11 11:21:17;;;;;;;18.33;2.85;;;10.80;99.90;;;;;;4890282;29;20048;-83
2023/01/11 11:24:16;;;;;;;16.50;3.22;;;9.30;99.90;;;;;;4879707;29;20064;-85
2023/01/11 11:27:07;;;;;;;21.40;2.88;;;9.30;99.90;;;;;;4881179;29;20045;-85
2023/01/11 11:29:43;;;;;;;15.63;3.08;;;9.20;99.90;;;;;;4895230;29;20048;-82
2023/01/11 11:32:35;;;;;;;19.30;2.95;;;11.10;99.90;;;;;;4880722;29;20072;-86
2023/01/11 11:35:01;;;;;;;21.00;4.07;;;10.20;99.90;;;;;;4900743;29;20052;-84
2023/01/11 11:37:44;;;;;;;19.73;2.67;;;10.60;99.90;;;;;;4906182;29;20512;-87
2023/01/11 11:40:31;;;;;;;19.33;3.13;;;9.30;99.90;;;;;;4880171;29;20148;-84
2023/01/11 11:43:19;;;;;;;18.15;3.20;;;9.30;99.90;;;;;;4877614;29;20048;-79
2023/01/11 11:46:14;;;;;;;19.60;3.63;;;9.30;99.90;;;;;;4906642;29;20490;-81
2023/01/11 11:48:41;;;;;;;;;;;11.00;99.90;;;;;;4877925;29;20052;-87
2023/01/11 11:51:19;;;;;;;18.83;2.05;;;10.50;99.90;;;;;;4891468;29;19931;-82
2023/01/11 11:53:54;;;;;;;20.02;2.90;;;9.90;99.90;;;;;;4888069;29;20055;-81
2023/01/11 11:56:27;;;;;;;19.73;2.95;;;10.20;99.90;;;;;;4876180;29;20146;-85
2023/01/11 11:58:54;;;;;;;19.30;4.15;;;9.30;99.90;;;;;;4877545;29;20136;-84
2023/01/11 12:01:25;;;;;;;21.83;3.17;;;9.60;99.90;;;;;;4876042;29;20416;-81
2023/01/11 12:03:55;;;;;;;17.95;3.25;;;9.30;99.90;;;;;;4913305;29;20056;-82
2023/01/11 12:06:35;;;;;;;14.80;2.75;;;10.90;99.90;;;;;;4880286;29;20048;-85
2023/01/11 12:09:02;;;;;;;14.50;2.63;;;9.30;99.90;;;;;;4870677;29;20685;-88
2023/01/11 12:11:33;;;;;;;22.40;4.15;;;10.60;99.90;;;;;;4890303;29;20091;-86
2023/01/11 12:14:15;;;;;;;16.45;3.60;;;7.80;99.90;;;;;;5084021;27;20493;-83
2023/01/11 12:16:42;;;;;;;20.02;2.78;;;10.90;99.90;;;;;;5067522;28;20556;-82
2023/01/11 12:19:38;;;;;;;21.25;3.95;;;10.90;99.90;;;;;;5083656;28;20347;-82
2023/01/11 12:22:21;;;;;;;24.88;3.58;;;9.30;99.90;;;;;;5076582;28;20170;-82
2023/01/11 12:25:23;;;;;;;19.17;3.10;;;10.60;99.90;;;;;;5083848;28;20532;-83
2023/01/11 12:28:02;;;;;;;22.85;2.88;;;9.30;99.90;;;;;;5084933;28;20121;-83
2023/01/11 12:30:44;;;;;;;18.20;3.10;;;10.90;99.90;;;;;;5083998;28;20059;-83
2023/01/11 12:33:37;;;;;;;22.48;2.40;;;10.60;99.90;;;;;;5061372;28;20113;-82
2023/01/11 12:36:35;;;;;;;21.55;4.00;;;9.30;99.90;;;;;;5077846;28;20040;-81
2023/01/11 12:39:46;;;;;;;22.27;3.50;;;9.30;99.90;;;;;;4378187;28;10000612;-80
2023/01/11 12:42:31;;;;;;;21.95;3.90;;;9.30;99.90;;;;;;5038713;28;20036;-82
2023/01/11 12:45:02;;;;;;;18.38;3.70;;;9.20;99.90;;;;;;5030149;28;20045;-82
2023/01/11 12:48:05;;;;;;;16.70;2.88;;;10.60;99.90;;;;;;5064738;28;20557;-81
2023/01/11 12:50:46;;;;;;;19.23;3.33;;;9.30;99.90;;;;;;5077477;28;20041;-81
2023/01/11 12:53:47;;;;;;;15.90;3.28;;;10.70;99.90;;;;;;5059728;28;20105;-81
2023/01/11 12:56:41;;;;;;;25.92;2.90;;;9.30;99.90;;;;;;5054687;28;20715;-81
2023/01/11 12:59:34;;;;;;;19.17;3.10;;;9.30;99.90;;;;;;5057419;28;20040;-82
2023/01/11 13:02:18;;;;;;;18.52;3.78;;;9.30;99.90;;;;;;5080838;28;20119;-81
2023/01/11 13:04:52;;;;;;;24.75;3.83;;;10.40;99.90;;;;;;5080493;28;20569;-82
2023/01/11 13:07:52;;;;;;;20.13;2.63;;;10.60;99.90;;;;;;5088112;28;20044;-82
2023/01/11 13:10:37;;;;;;;26.50;4.72;;;9.30;99.90;;;;;;5041947;28;20183;-82
2023/01/11 13:13:13;;;;;;;26.40;4.90;;;9.20;99.90;;;;;;5058083;28;20113;-87
2023/01/11 13:16:04;;;;;;;23.08;4.07;;;10.50;99.90;;;;;;5105985;28;20044;-83
2023/01/11 13:18:49;;;;;;;20.73;3.50;;;10.70;99.90;;;;;;5040176;28;20063;-84
2023/01/11 13:21:33;;;;;;;22.52;3.72;;;9.20;99.90;;;;;;5071639;28;20049;-82
2023/01/11 13:24:09;;;;;;;21.33;3.77;;;10.00;99.90;;;;;;4702258;28;9999633;-84
2023/01/11 13:26:41;;;;;;;29.13;3.67;;;9.20;99.90;;;;;;5059495;28;20052;-85
2023/01/11 13:29:28;;;;;;;21.33;3.67;;;9.20;99.90;;;;;;5058994;28;20048;-83
2023/01/11 13:31:58;;;;;;;27.23;4.13;;;9.20;99.90;;;;;;5057268;28;20056;-85
2023/01/11 13:34:33;;;;;;;28.67;5.25;;;9.10;99.90;;;;;;5059362;28;20040;-84
2023/01/11 13:37:13;;;;;;;18.30;3.47;;;9.20;99.90;;;;;;5055491;28;20128;-83
2023/01/11 13:40:08;;;;;;;26.55;3.42;;;9.30;99.90;;;;;;5013427;28;20091;-84
2023/01/11 13:42:41;;;;;;;25.13;3.63;;;9.30;99.90;;;;;;5061479;28;20049;-79
2023/01/11 13:45:35;;;;;;;26.13;3.97;;;9.30;99.90;;;;;;5060146;28;20036;-84
2023/01/11 13:48:12;;;;;;;27.85;4.22;;;9.60;99.90;;;;;;5062966;28;20044;-81